createdAt,value
2018-03-16T00:00:05.447Z,87.54
2018-03-16T00:00:45.961Z,86.88
2018-03-16T00:01:26.409Z,86.59
2018-03-16T00:02:06.892Z,87.07
2018-03-16T00:02:47.394Z,87.16
2018-03-16T00:03:27.904Z,87.16
2018-03-16T00:04:08.411Z,86.98
2018-03-16T00:04:48.915Z,86.98
2018-03-16T00:05:29.460Z,87.07
2018-03-16T00:06:09.929Z,87.35
2018-03-16T00:06:50.388Z,86.88
2018-03-16T00:07:30.891Z,86.69
2018-03-16T00:08:11.389Z,86.98
2018-03-16T00:08:51.934Z,86.88
2018-03-16T00:09:32.444Z,87.45
2018-03-16T00:10:12.964Z,87.45
2018-03-16T00:10:53.471Z,87.26
2018-03-16T00:11:33.983Z,87.54
2018-03-16T00:12:14.497Z,86.88
2018-03-16T00:12:55.015Z,86.98
2018-03-16T00:13:35.526Z,86.78
2018-03-16T00:14:16.012Z,87.16
2018-03-16T00:14:56.505Z,87.45
2018-03-16T00:15:37.019Z,87.54
2018-03-16T00:16:17.541Z,86.78
2018-03-16T00:16:57.995Z,86.59
2018-03-16T00:17:38.534Z,86.78
2018-03-16T00:18:19.027Z,86.59
2018-03-16T00:18:59.526Z,86.69
2018-03-16T00:19:40.098Z,86.4
2018-03-16T00:20:20.532Z,86.98
2018-03-16T00:21:00.939Z,86.49
2018-03-16T00:21:41.416Z,86.69
2018-03-16T00:22:21.958Z,86.78
2018-03-16T00:23:02.761Z,86.98
2018-03-16T00:23:42.980Z,86.98
2018-03-16T00:24:23.522Z,87.07
2018-03-16T00:25:03.995Z,86.49
2018-03-16T00:25:44.475Z,87.11
2018-03-16T00:26:24.987Z,86.73
2018-03-16T00:27:05.510Z,86.44
2018-03-16T00:27:46.027Z,87.02
2018-03-16T00:28:26.562Z,87.21
2018-03-16T00:29:07.083Z,86.3
2018-03-16T00:29:47.601Z,86.4
2018-03-16T00:30:28.115Z,86.59
2018-03-16T00:31:08.615Z,86.69
2018-03-16T00:31:49.132Z,87.02
2018-03-16T00:32:29.653Z,86.54
2018-03-16T00:33:10.167Z,86.73
2018-03-16T00:33:50.681Z,86.63
2018-03-16T00:34:31.191Z,86.63
2018-03-16T00:35:11.753Z,86.73
2018-03-16T00:35:52.258Z,86.59
2018-03-16T00:36:32.771Z,86.54
2018-03-16T00:37:13.269Z,86.44
2018-03-16T00:37:53.785Z,86.44
2018-03-16T00:38:34.305Z,86.73
2018-03-16T00:39:14.834Z,86.73
2018-03-16T00:39:55.331Z,86.35
2018-03-16T00:40:35.848Z,86.92
2018-03-16T00:41:16.364Z,86.54
2018-03-16T00:41:56.865Z,86.44
2018-03-16T00:42:37.390Z,86.44
2018-03-16T00:43:17.897Z,86.63
2018-03-16T00:43:58.396Z,87.02
2018-03-16T00:44:38.906Z,86.59
2018-03-16T00:45:19.477Z,86.59
2018-03-16T00:45:59.966Z,86.4
2018-03-16T00:46:40.480Z,86.4
2018-03-16T00:47:21.009Z,86.35
2018-03-16T00:48:01.517Z,86.78
2018-03-16T00:48:42.026Z,86.4
2018-03-16T00:49:22.534Z,86.3
2018-03-16T00:50:03.053Z,86.4
2018-03-16T00:50:43.567Z,86.59
2018-03-16T00:51:24.102Z,86.4
2018-03-16T00:52:04.612Z,86.4
2018-03-16T00:52:45.131Z,86.49
2018-03-16T00:53:25.671Z,85.93
2018-03-16T00:54:06.184Z,86.59
2018-03-16T00:54:46.711Z,86.49
2018-03-16T00:55:27.228Z,86.49
2018-03-16T00:56:07.744Z,86.49
2018-03-16T00:56:48.257Z,86.49
2018-03-16T00:57:28.779Z,86.49
2018-03-16T00:58:09.310Z,86.4
2018-03-16T00:58:49.832Z,86.59
2018-03-16T00:59:30.344Z,86.4
2018-03-16T01:00:10.866Z,86.49
2018-03-16T01:00:51.377Z,86.4
2018-03-16T01:01:31.911Z,86.21
2018-03-16T01:02:12.422Z,85.93
2018-03-16T01:02:52.941Z,86.11
2018-03-16T01:03:33.455Z,85.45
2018-03-16T01:04:13.980Z,85.64
2018-03-16T01:04:54.486Z,85.93
2018-03-16T01:05:35.000Z,86.02
2018-03-16T01:06:15.515Z,86.49
2018-03-16T01:06:56.025Z,86.4
2018-03-16T01:07:36.533Z,85.83
2018-03-16T01:08:17.053Z,86.11
2018-03-16T01:08:57.585Z,85.93
2018-03-16T01:09:38.117Z,86.3
2018-03-16T01:10:18.609Z,86.49
2018-03-16T01:10:59.119Z,86.4
2018-03-16T01:11:39.621Z,86.4
2018-03-16T01:12:20.136Z,86.69
2018-03-16T01:13:00.647Z,86.59
2018-03-16T01:13:41.170Z,86.21
2018-03-16T01:14:21.686Z,86.11
2018-03-16T01:15:02.192Z,86.59
2018-03-16T01:15:42.708Z,85.93
2018-03-16T01:16:23.219Z,85.93
2018-03-16T01:17:03.748Z,86.21
2018-03-16T01:17:44.268Z,86.11
2018-03-16T01:18:24.779Z,86.4
2018-03-16T01:19:05.284Z,86.21
2018-03-16T01:19:45.801Z,85.83
2018-03-16T01:20:26.323Z,86.11
2018-03-16T01:21:06.836Z,86.02
2018-03-16T01:21:47.376Z,85.83
2018-03-16T01:22:27.875Z,85.54
2018-03-16T01:23:08.397Z,85.45
2018-03-16T01:23:48.914Z,85.83
2018-03-16T01:24:29.401Z,85.93
2018-03-16T01:25:09.922Z,85.73
2018-03-16T01:25:50.448Z,85.64
2018-03-16T01:26:30.958Z,85.83
2018-03-16T01:27:11.483Z,85.73
2018-03-16T01:27:52.004Z,86.4
2018-03-16T01:28:32.519Z,86.59
2018-03-16T01:29:13.034Z,86.59
2018-03-16T01:29:53.540Z,86.59
2018-03-16T01:30:34.094Z,86.88
2018-03-16T01:31:14.587Z,86.78
2018-03-16T01:31:55.071Z,86.49
2018-03-16T01:32:35.589Z,86.59
2018-03-16T01:33:16.099Z,86.69
2018-03-16T01:33:56.609Z,86.78
2018-03-16T01:34:37.120Z,86.4
2018-03-16T01:35:17.635Z,86.78
2018-03-16T01:35:58.141Z,86.78
2018-03-16T01:36:38.641Z,87.07
2018-03-16T01:37:19.136Z,87.26
2018-03-16T01:37:59.631Z,86.59
2018-03-16T01:38:40.136Z,87.07
2018-03-16T01:39:20.649Z,86.3
2018-03-16T01:40:01.147Z,86.78
2018-03-16T01:40:41.652Z,86.69
2018-03-16T01:41:22.143Z,86.78
2018-03-16T01:42:02.651Z,86.4
2018-03-16T01:42:43.158Z,86.59
2018-03-16T01:43:23.658Z,87.64
2018-03-16T01:44:04.181Z,87.35
2018-03-16T01:44:44.697Z,87.26
2018-03-16T01:45:25.207Z,87.64
2018-03-16T01:46:05.733Z,88.5
2018-03-16T01:46:46.243Z,88.4
2018-03-16T01:47:26.756Z,88.12
2018-03-16T01:48:07.267Z,88.02
2018-03-16T01:48:47.784Z,88.5
2018-03-16T01:49:28.301Z,88.31
2018-03-16T01:50:08.803Z,88.12
2018-03-16T01:50:49.319Z,87.93
2018-03-16T01:51:29.837Z,88.31
2018-03-16T01:52:10.340Z,88.69
2018-03-16T01:52:50.851Z,87.93
2018-03-16T01:53:31.377Z,88.12
2018-03-16T01:54:11.912Z,88.21
2018-03-16T01:54:52.403Z,88.21
2018-03-16T01:55:32.952Z,88.02
2018-03-16T01:56:13.474Z,87.93
2018-03-16T01:56:53.986Z,88.4
2018-03-16T01:57:34.496Z,88.31
2018-03-16T01:58:15.011Z,88.4
2018-03-16T01:58:55.529Z,88.21
2018-03-16T01:59:36.048Z,88.12
2018-03-16T02:00:16.582Z,88.21
2018-03-16T02:00:57.092Z,88.31
2018-03-16T02:01:37.618Z,88.21
2018-03-16T02:02:18.130Z,88.4
2018-03-16T02:02:58.624Z,88.31
2018-03-16T02:03:39.146Z,88.31
2018-03-16T02:04:19.655Z,88.4
2018-03-16T02:05:00.164Z,88.02
2018-03-16T02:05:40.682Z,88.4
2018-03-16T02:06:21.205Z,88.21
2018-03-16T02:07:01.710Z,87.93
2018-03-16T02:07:42.231Z,88.21
2018-03-16T02:08:22.753Z,88.31
2018-03-16T02:09:03.270Z,88.88
2018-03-16T02:09:43.780Z,88.5
2018-03-16T02:10:24.307Z,88.69
2018-03-16T02:11:04.819Z,88.59
2018-03-16T02:11:45.334Z,88.31
2018-03-16T02:12:25.845Z,88.88
2018-03-16T02:13:06.356Z,88.64
2018-03-16T02:13:46.876Z,88.74
2018-03-16T02:14:27.398Z,88.59
2018-03-16T02:15:07.918Z,88.31
2018-03-16T02:15:48.429Z,88.12
2018-03-16T02:16:28.969Z,88.98
2018-03-16T02:17:09.479Z,88.21
2018-03-16T02:17:49.986Z,88.21
2018-03-16T02:18:30.522Z,88.4
2018-03-16T02:19:11.038Z,88.5
2018-03-16T02:19:51.554Z,88.5
2018-03-16T02:20:32.066Z,88.5
2018-03-16T02:21:12.571Z,88.69
2018-03-16T02:21:53.104Z,88.31
2018-03-16T02:22:33.623Z,88.21
2018-03-16T02:23:14.137Z,88.12
2018-03-16T02:23:54.678Z,87.83
2018-03-16T02:24:35.215Z,88.59
2018-03-16T02:25:15.736Z,88.21
2018-03-16T02:25:56.273Z,88.12
2018-03-16T02:26:36.791Z,88.36
2018-03-16T02:27:17.321Z,88.17
2018-03-16T02:27:57.858Z,88.4
2018-03-16T02:28:38.348Z,88.4
2018-03-16T02:29:18.862Z,87.93
2018-03-16T02:29:59.367Z,88.02
2018-03-16T02:30:39.883Z,88.12
2018-03-16T02:31:20.409Z,88.02
2018-03-16T02:32:00.933Z,88.21
2018-03-16T02:32:41.450Z,88.21
2018-03-16T02:33:21.982Z,87.93
2018-03-16T02:34:02.493Z,87.83
2018-03-16T02:34:43.014Z,88.12
2018-03-16T02:35:23.537Z,87.93
2018-03-16T02:36:04.058Z,88.45
2018-03-16T02:36:44.590Z,88.4
2018-03-16T02:37:25.107Z,88.02
2018-03-16T02:38:05.614Z,87.93
2018-03-16T02:38:46.163Z,88.02
2018-03-16T02:39:26.669Z,88.21
2018-03-16T02:40:07.187Z,87.35
2018-03-16T02:40:47.667Z,87.26
2018-03-16T02:41:28.228Z,87.35
2018-03-16T02:42:08.696Z,87.74
2018-03-16T02:42:49.320Z,87.54
2018-03-16T02:43:29.665Z,87.26
2018-03-16T02:44:10.210Z,87.35
2018-03-16T02:44:50.704Z,87.54
2018-03-16T02:45:31.243Z,87.54
2018-03-16T02:46:11.729Z,87.35
2018-03-16T02:46:52.252Z,87.16
2018-03-16T02:47:32.720Z,87.54
2018-03-16T02:48:13.235Z,87.45
2018-03-16T02:48:53.740Z,87.07
2018-03-16T02:49:34.249Z,86.98
2018-03-16T02:50:14.739Z,87.54
2018-03-16T02:50:55.280Z,87.64
2018-03-16T02:51:35.772Z,87.35
2018-03-16T02:52:16.301Z,87.26
2018-03-16T02:52:56.786Z,87.54
2018-03-16T02:53:37.327Z,87.26
2018-03-16T02:54:17.843Z,87.45
2018-03-16T02:54:58.359Z,87.64
2018-03-16T02:55:38.886Z,88.02
2018-03-16T02:56:19.405Z,87.64
2018-03-16T02:56:59.947Z,88.02
2018-03-16T02:57:40.449Z,88.21
2018-03-16T02:58:20.978Z,88.4
2018-03-16T02:59:01.474Z,87.93
2018-03-16T02:59:41.994Z,87.26
2018-03-16T03:00:22.525Z,87.16
2018-03-16T03:01:03.029Z,87.4
2018-03-16T03:01:43.570Z,87.35
2018-03-16T03:02:24.076Z,87.35
2018-03-16T03:03:04.578Z,88.02
2018-03-16T03:03:45.100Z,87.07
2018-03-16T03:04:25.603Z,87.45
2018-03-16T03:05:06.117Z,87.35
2018-03-16T03:05:46.642Z,87.54
2018-03-16T03:06:27.148Z,87.64
2018-03-16T03:07:07.662Z,87.35
2018-03-16T03:07:48.195Z,87.45
2018-03-16T03:08:28.675Z,87.64
2018-03-16T03:09:09.193Z,87.54
2018-03-16T03:09:49.699Z,87.21
2018-03-16T03:10:30.218Z,87.45
2018-03-16T03:11:10.739Z,87.45
2018-03-16T03:11:51.252Z,87.54
2018-03-16T03:12:31.769Z,87.35
2018-03-16T03:13:12.281Z,87.64
2018-03-16T03:13:52.798Z,87.64
2018-03-16T03:14:33.343Z,87.31
2018-03-16T03:15:13.884Z,87.31
2018-03-16T03:15:54.368Z,87.64
2018-03-16T03:16:34.892Z,88.02
2018-03-16T03:17:15.423Z,87.26
2018-03-16T03:17:55.960Z,87.07
2018-03-16T03:18:36.427Z,87.16
2018-03-16T03:19:16.928Z,87.26
2018-03-16T03:19:57.446Z,87.26
2018-03-16T03:20:37.982Z,87.16
2018-03-16T03:21:18.498Z,87.26
2018-03-16T03:21:59.007Z,86.88
2018-03-16T03:22:39.582Z,86.59
2018-03-16T03:23:20.064Z,86.69
2018-03-16T03:24:00.633Z,86.55
2018-03-16T03:24:41.161Z,87.16
2018-03-16T03:25:21.650Z,86.45
2018-03-16T03:26:02.165Z,87.31
2018-03-16T03:26:42.704Z,87.21
2018-03-16T03:27:23.186Z,87.21
2018-03-16T03:28:03.716Z,87.07
2018-03-16T03:28:44.199Z,87.26
2018-03-16T03:29:24.707Z,87.35
2018-03-16T03:30:05.279Z,87.35
2018-03-16T03:30:45.752Z,86.78
2018-03-16T03:31:26.377Z,87.07
2018-03-16T03:32:06.894Z,86.78
2018-03-16T03:32:47.410Z,86.69
2018-03-16T03:33:27.923Z,86.69
2018-03-16T03:34:08.479Z,86.88
2018-03-16T03:34:48.972Z,86.98
2018-03-16T03:35:29.496Z,86.88
2018-03-16T03:36:10.032Z,86.69
2018-03-16T03:36:50.552Z,86.78
2018-03-16T03:37:31.031Z,87.12
2018-03-16T03:38:11.556Z,86.36
2018-03-16T03:38:52.056Z,87.07
2018-03-16T03:39:32.568Z,86.59
2018-03-16T03:40:13.071Z,86.45
2018-03-16T03:42:11.278Z,87.07
2018-03-16T03:42:51.834Z,86.3
2018-03-16T03:43:32.390Z,87.07
2018-03-16T03:44:12.835Z,86.74
2018-03-16T03:44:53.337Z,86.59
2018-03-16T03:45:33.928Z,87.35
2018-03-16T03:46:14.448Z,86.69
2018-03-16T03:46:54.970Z,86.88
2018-03-16T03:47:35.473Z,86.59
2018-03-16T03:48:16.005Z,86.69
2018-03-16T03:48:56.515Z,87.16
2018-03-16T03:49:36.992Z,86.69
2018-03-16T03:50:17.519Z,86.88
2018-03-16T03:50:58.018Z,86.78
2018-03-16T03:51:38.497Z,87.35
2018-03-16T03:52:19.026Z,87.16
2018-03-16T03:52:59.532Z,87.26
2018-03-16T03:53:40.040Z,87.45
2018-03-16T03:54:20.530Z,87.45
2018-03-16T03:55:01.053Z,86.88
2018-03-16T03:55:41.596Z,86.59
2018-03-16T03:56:22.027Z,86.78
2018-03-16T03:57:02.517Z,86.21
2018-03-16T03:57:43.020Z,86.3
2018-03-16T03:58:23.511Z,86.4
2018-03-16T03:59:04.004Z,86.59
2018-03-16T03:59:44.590Z,86.98
2018-03-16T04:00:25.057Z,86.88
2018-03-16T04:01:05.605Z,86.88
2018-03-16T04:01:46.119Z,87.16
2018-03-16T04:02:26.687Z,87.16
2018-03-16T04:03:07.110Z,87.07
2018-03-16T04:03:47.609Z,87.07
2018-03-16T04:04:28.149Z,87.16
2018-03-16T04:05:08.630Z,87.16
2018-03-16T04:05:49.139Z,86.59
2018-03-16T04:06:29.648Z,86.59
2018-03-16T04:07:10.147Z,86.4
2018-03-16T04:07:50.663Z,86.4
2018-03-16T04:08:31.160Z,86.59
2018-03-16T04:09:11.666Z,86.49
2018-03-16T04:09:52.162Z,86.3
2018-03-16T04:10:32.656Z,86.49
2018-03-16T04:11:13.230Z,86.49
2018-03-16T04:11:53.740Z,85.83
2018-03-16T04:12:34.211Z,86.11
2018-03-16T04:13:14.705Z,86.11
2018-03-16T04:13:55.206Z,86.21
2018-03-16T04:14:35.688Z,85.73
2018-03-16T04:15:16.187Z,86.21
2018-03-16T04:15:56.716Z,85.93
2018-03-16T04:17:46.475Z,85.64
2018-03-16T04:18:26.988Z,86.02
2018-03-16T04:19:07.516Z,86.3
2018-03-16T04:19:48.017Z,85.93
2018-03-16T04:20:28.584Z,86.4
2018-03-16T04:21:09.084Z,86.98
2018-03-16T04:21:49.614Z,86.4
2018-03-16T04:22:30.138Z,86.49
2018-03-16T04:23:10.650Z,86.49
2018-03-16T04:23:51.170Z,86.4
2018-03-16T04:24:31.706Z,86.49
2018-03-16T04:25:12.226Z,86.35
2018-03-16T04:25:52.721Z,86.4
2018-03-16T04:26:33.240Z,86.21
2018-03-16T04:27:13.840Z,86.59
2018-03-16T04:27:54.308Z,86.49
2018-03-16T04:28:34.817Z,86.4
2018-03-16T04:29:15.338Z,86.49
2018-03-16T04:29:55.830Z,86.49
2018-03-16T04:30:36.343Z,86.59
2018-03-16T04:31:16.867Z,86.59
2018-03-16T04:31:57.394Z,86.4
2018-03-16T04:32:37.877Z,86.4
2018-03-16T04:33:18.381Z,86.21
2018-03-16T04:33:58.901Z,86.59
2018-03-16T04:34:39.459Z,86.49
2018-03-16T04:35:19.979Z,86.59
2018-03-16T04:36:00.509Z,87.07
2018-03-16T04:36:41.020Z,86.78
2018-03-16T04:37:21.536Z,86.88
2018-03-16T04:38:02.060Z,86.78
2018-03-16T04:38:42.575Z,86.78
2018-03-16T04:39:23.107Z,86.88
2018-03-16T04:40:03.612Z,87.35
2018-03-16T04:40:44.144Z,87.16
2018-03-16T04:41:24.672Z,87.26
2018-03-16T04:42:05.258Z,87.07
2018-03-16T04:42:45.817Z,87.16
2018-03-16T04:43:26.382Z,87.07
2018-03-16T04:44:06.816Z,87.07
2018-03-16T04:44:47.329Z,87.16
2018-03-16T04:45:27.841Z,87.16
2018-03-16T04:46:08.343Z,87.07
2018-03-16T04:46:48.862Z,87.26
2018-03-16T04:47:29.386Z,87.07
2018-03-16T04:48:09.899Z,87.26
2018-03-16T04:48:50.406Z,87.16
2018-03-16T04:49:30.949Z,86.49
2018-03-16T04:50:11.464Z,86.69
2018-03-16T04:50:51.963Z,86.98
2018-03-16T04:51:32.468Z,87.93
2018-03-16T04:52:12.997Z,87.45
2018-03-16T04:52:53.513Z,87.35
2018-03-16T04:53:34.019Z,87.45
2018-03-16T04:54:14.551Z,87.64
2018-03-16T04:54:55.061Z,87.93
2018-03-16T04:55:35.564Z,87.54
2018-03-16T04:56:16.098Z,87.54
2018-03-16T04:56:56.595Z,87.31
2018-03-16T04:57:37.108Z,87.5
2018-03-16T04:58:17.574Z,87.12
2018-03-16T04:58:58.070Z,87.4
2018-03-16T04:59:38.561Z,87.21
2018-03-16T05:00:19.071Z,87.31
2018-03-16T05:00:59.579Z,87.45
2018-03-16T05:01:40.090Z,87.45
2018-03-16T05:02:20.620Z,87.26
2018-03-16T05:03:01.128Z,87.35
2018-03-16T05:03:41.639Z,87.12
2018-03-16T05:04:22.156Z,87.31
2018-03-16T05:05:02.667Z,87.5
2018-03-16T05:05:43.183Z,87.54
2018-03-16T05:06:23.694Z,87.12
2018-03-16T05:07:04.207Z,87.45
2018-03-16T05:07:44.723Z,87.35
2018-03-16T05:08:25.246Z,87.45
2018-03-16T05:09:05.748Z,87.54
2018-03-16T05:09:46.255Z,87.54
2018-03-16T05:10:26.766Z,87.45
2018-03-16T05:11:07.283Z,87.54
2018-03-16T05:11:47.793Z,87.35
2018-03-16T05:12:28.298Z,87.45
2018-03-16T05:13:08.830Z,87.54
2018-03-16T05:13:49.324Z,87.54
2018-03-16T05:14:29.827Z,87.45
2018-03-16T05:15:10.332Z,87.54
2018-03-16T05:15:50.838Z,87.45
2018-03-16T05:16:31.346Z,87.35
2018-03-16T05:17:11.856Z,87.16
2018-03-16T05:17:52.379Z,87.26
2018-03-16T05:18:32.886Z,87.35
2018-03-16T05:19:13.411Z,86.78
2018-03-16T05:19:53.936Z,87.16
2018-03-16T05:20:34.446Z,86.98
2018-03-16T05:21:14.958Z,86.69
2018-03-16T05:21:55.471Z,86.69
2018-03-16T05:22:35.981Z,86.4
2018-03-16T05:23:16.498Z,87.07
2018-03-16T05:23:57.027Z,87.16
2018-03-16T05:24:37.517Z,87.64
2018-03-16T05:25:18.037Z,87.64
2018-03-16T05:25:58.558Z,87.35
2018-03-16T05:26:39.055Z,87.35
2018-03-16T05:27:19.561Z,87.54
2018-03-16T05:28:00.065Z,87.54
2018-03-16T05:28:40.585Z,87.74
2018-03-16T05:29:21.098Z,87.74
2018-03-16T05:30:01.606Z,88.07
2018-03-16T05:30:42.116Z,88.26
2018-03-16T05:31:22.629Z,87.98
2018-03-16T05:32:03.149Z,88.12
2018-03-16T05:32:43.670Z,88.07
2018-03-16T05:33:24.202Z,88.55
2018-03-16T05:34:04.717Z,88.26
2018-03-16T05:34:45.242Z,89.12
2018-03-16T05:35:25.767Z,88.55
2018-03-16T05:36:06.280Z,88.26
2018-03-16T05:36:46.810Z,88.84
2018-03-16T05:37:27.332Z,88.74
2018-03-16T05:38:07.850Z,88.64
2018-03-16T05:38:48.350Z,89.17
2018-03-16T05:39:28.854Z,89.12
2018-03-16T05:40:09.376Z,88.98
2018-03-16T05:40:49.906Z,88.84
2018-03-16T05:41:30.442Z,89.07
2018-03-16T05:42:10.965Z,89.03
2018-03-16T05:42:51.475Z,88.84
2018-03-16T05:43:31.970Z,89.12
2018-03-16T05:44:12.465Z,89.89
2018-03-16T05:44:53.056Z,90.26
2018-03-16T05:45:33.583Z,89.89
2018-03-16T05:46:14.091Z,90.17
2018-03-16T05:46:54.613Z,89.98
2018-03-16T05:47:35.131Z,90.08
2018-03-16T05:48:15.608Z,90.17
2018-03-16T05:48:56.140Z,89.89
2018-03-16T05:49:36.698Z,90.26
2018-03-16T05:50:17.158Z,89.89
2018-03-16T05:50:57.691Z,90.08
2018-03-16T05:51:38.196Z,89.79
2018-03-16T05:52:18.704Z,89.79
2018-03-16T05:52:59.265Z,89.83
2018-03-16T05:53:39.774Z,90.36
2018-03-16T05:54:20.284Z,90.93
2018-03-16T05:55:00.843Z,90.69
2018-03-16T05:56:53.928Z,90.03
2018-03-16T05:57:34.426Z,90.12
2018-03-16T05:58:14.953Z,90.12
2018-03-16T05:58:55.446Z,90.08
2018-03-16T05:59:35.945Z,90.55
2018-03-16T06:00:16.454Z,91.31
2018-03-16T06:00:57.017Z,90.64
2018-03-16T06:01:37.463Z,91.31
2018-03-16T06:02:17.974Z,91.22
2018-03-16T06:02:58.497Z,90.55
2018-03-16T06:03:39.043Z,91.13
2018-03-16T06:04:19.541Z,91.41
2018-03-16T06:05:00.067Z,91.5
2018-03-16T06:05:40.583Z,91.6
2018-03-16T06:06:21.092Z,91.69
2018-03-16T06:07:01.626Z,91.88
2018-03-16T06:07:42.136Z,92.36
2018-03-16T06:08:22.636Z,92.46
2018-03-16T06:09:03.153Z,92.74
2018-03-16T06:09:43.700Z,93.03
2018-03-16T06:10:24.229Z,92.84
2018-03-16T06:11:04.748Z,92.93
2018-03-16T06:11:45.252Z,92.27
2018-03-16T06:12:25.764Z,92.17
2018-03-16T06:13:06.274Z,92.27
2018-03-16T06:13:46.796Z,92.36
2018-03-16T06:14:27.313Z,92.55
2018-03-16T06:15:07.836Z,93.41
2018-03-16T06:15:48.350Z,93.03
2018-03-16T06:16:28.869Z,93.6
2018-03-16T06:17:09.391Z,93.98
2018-03-16T06:17:49.932Z,94.65
2018-03-16T06:18:30.452Z,94.56
2018-03-16T06:19:10.994Z,94.27
2018-03-16T06:19:51.458Z,94.08
2018-03-16T06:20:31.951Z,93.98
2018-03-16T06:21:12.461Z,94.65
2018-03-16T06:21:52.986Z,95.03
2018-03-16T06:22:33.472Z,95.7
2018-03-16T06:23:14.075Z,95.32
2018-03-16T06:23:54.513Z,94.65
2018-03-16T06:24:35.001Z,94.08
2018-03-16T06:25:15.468Z,94.93
2018-03-16T06:25:56.051Z,96.17
2018-03-16T06:26:36.604Z,97.03
2018-03-16T06:28:54.910Z,95.98
2018-03-16T06:29:35.434Z,96.56
2018-03-16T06:30:15.944Z,95.98
2018-03-16T06:30:56.473Z,95.89
2018-03-16T06:31:36.970Z,95.12
2018-03-16T06:32:17.508Z,99.99
2018-03-16T06:32:58.006Z,99.99
2018-03-16T06:33:38.523Z,99.99
2018-03-16T06:34:19.038Z,99.99
2018-03-16T06:34:59.553Z,99.99
2018-03-16T06:35:40.134Z,99.99
2018-03-16T06:36:20.642Z,99.99
2018-03-16T06:37:01.211Z,99.99
2018-03-16T06:37:42.774Z,99.99
2018-03-16T06:38:23.304Z,99.99
2018-03-16T06:39:03.804Z,99.8
2018-03-16T06:39:44.321Z,99.22
2018-03-16T06:40:24.823Z,98.75
2018-03-16T06:41:05.339Z,99.04
2018-03-16T06:41:46.584Z,98.94
2018-03-16T06:42:27.078Z,97.61
2018-03-16T06:43:07.564Z,97.8
2018-03-16T06:43:48.099Z,98.18
2018-03-16T06:44:28.551Z,98.36
2018-03-16T06:45:09.083Z,97.7
2018-03-16T06:45:49.569Z,98.36
2018-03-16T06:46:30.338Z,98.27
2018-03-16T06:47:10.676Z,98.08
2018-03-16T06:47:51.148Z,98.36
2018-03-16T06:48:31.756Z,97.99
2018-03-16T06:49:12.116Z,98.27
2018-03-16T06:49:52.587Z,97.99
2018-03-16T06:50:33.082Z,97.03
2018-03-16T06:51:13.564Z,97.41
2018-03-16T06:51:54.067Z,97.61
2018-03-16T06:52:34.505Z,98.36
2018-03-16T06:53:15.020Z,98.56
2018-03-16T06:53:55.515Z,98.36
2018-03-16T06:54:36.013Z,99.04
2018-03-16T06:55:16.539Z,97.8
2018-03-16T06:55:57.033Z,97.7
2018-03-16T06:58:15.358Z,98.08
2018-03-16T06:58:55.871Z,97.22
2018-03-16T06:59:36.409Z,97.89
2018-03-16T07:00:16.933Z,97.41
2018-03-16T07:00:57.459Z,97.89
2018-03-16T07:01:38.043Z,98.56
2018-03-16T07:02:18.469Z,98.46
2018-03-16T07:02:58.988Z,97.7
2018-03-16T07:03:39.535Z,97.32
2018-03-16T07:04:19.984Z,96.75
2018-03-16T07:05:00.503Z,97.99
2018-03-16T07:05:40.981Z,99.99
2018-03-16T07:06:21.534Z,99.99
2018-03-16T07:07:02.034Z,99.99
2018-03-16T07:07:42.516Z,99.99
2018-03-16T07:08:23.010Z,99.99
2018-03-16T07:09:03.574Z,99.99
2018-03-16T07:09:44.039Z,99.99
2018-03-16T07:10:24.540Z,99.99
2018-03-16T07:11:05.021Z,99.99
2018-03-16T07:11:45.499Z,99.99
2018-03-16T07:12:25.983Z,99.99
2018-03-16T07:13:06.465Z,99.99
2018-03-16T07:13:47.021Z,99.99
2018-03-16T07:14:27.513Z,99.99
2018-03-16T07:15:08.045Z,99.99
2018-03-16T07:15:48.570Z,99.99
2018-03-16T07:16:28.996Z,99.99
2018-03-16T07:17:09.500Z,99.99
2018-03-16T07:17:49.970Z,99.99
2018-03-16T07:18:30.454Z,99.99
2018-03-16T07:19:10.956Z,99.99
2018-03-16T07:19:51.426Z,99.99
2018-03-16T07:20:31.926Z,99.99
2018-03-16T07:21:12.420Z,99.99
2018-03-16T07:21:52.892Z,99.99
2018-03-16T07:22:33.390Z,99.99
2018-03-16T07:23:14.014Z,99.99
2018-03-16T07:23:54.500Z,99.95
2018-03-16T07:24:34.907Z,99.37
2018-03-16T07:25:15.473Z,98.99
2018-03-16T07:25:55.975Z,99.99
2018-03-16T07:26:36.466Z,99.99
2018-03-16T07:27:16.970Z,99.99
2018-03-16T07:27:57.513Z,99.99
2018-03-16T07:28:38.005Z,99.99
2018-03-16T07:29:18.438Z,99.99
2018-03-16T07:29:58.942Z,99.99
2018-03-16T07:30:39.445Z,99.99
2018-03-16T07:31:19.935Z,99.99
2018-03-16T07:32:00.425Z,99.99
2018-03-16T07:32:40.937Z,99.99
2018-03-16T07:33:21.644Z,99.99
2018-03-16T07:34:02.178Z,99.99
2018-03-16T07:34:42.671Z,99.99
2018-03-16T07:35:23.166Z,99.99
2018-03-16T07:36:03.661Z,99.99
2018-03-16T07:36:44.160Z,99.99
2018-03-16T07:37:24.650Z,99.99
2018-03-16T07:38:05.118Z,99.99
2018-03-16T07:38:45.610Z,98.99
2018-03-16T07:39:26.120Z,98.61
2018-03-16T07:40:06.620Z,98.8
2018-03-16T07:40:47.133Z,99.99
2018-03-16T07:41:27.595Z,99.99
2018-03-16T07:42:08.131Z,99.99
2018-03-16T07:42:48.614Z,99.27
2018-03-16T07:43:29.209Z,98.42
2018-03-16T07:44:09.652Z,99.99
2018-03-16T07:44:50.139Z,99.99
2018-03-16T07:45:30.646Z,99.99
2018-03-16T07:46:11.157Z,99.99
2018-03-16T07:46:51.664Z,99.99
2018-03-16T07:47:32.212Z,99.99
2018-03-16T07:48:12.669Z,99.99
2018-03-16T07:48:53.178Z,99.99
2018-03-16T07:49:33.690Z,99.99
2018-03-16T07:50:14.444Z,99.99
2018-03-16T07:50:54.964Z,99.99
2018-03-16T07:51:35.467Z,99.99
2018-03-16T07:52:15.975Z,99.99
2018-03-16T07:52:56.486Z,99.99
2018-03-16T07:53:37.023Z,99.99
2018-03-16T07:54:17.476Z,99.99
2018-03-16T07:54:58.052Z,99.99
2018-03-16T07:55:38.572Z,99.99
2018-03-16T07:56:19.079Z,99.99
2018-03-16T07:56:59.573Z,99.99
2018-03-16T07:57:40.082Z,99.99
2018-03-16T07:58:20.574Z,99.99
2018-03-16T07:59:01.106Z,99.99
2018-03-16T07:59:41.622Z,99.99
2018-03-16T08:00:22.137Z,99.99
2018-03-16T08:01:02.701Z,99.99
2018-03-16T08:01:43.176Z,99.99
2018-03-16T08:02:23.672Z,99.99
2018-03-16T08:03:04.154Z,99.99
2018-03-16T08:03:44.688Z,99.99
2018-03-16T08:04:25.203Z,99.99
2018-03-16T08:05:05.692Z,99.99
2018-03-16T08:05:46.190Z,99.99
2018-03-16T08:06:26.694Z,99.99
2018-03-16T08:07:07.260Z,99.99
2018-03-16T08:07:47.821Z,99.99
2018-03-16T08:08:28.316Z,99.99
2018-03-16T08:09:08.822Z,99.99
2018-03-16T08:09:49.335Z,99.99
2018-03-16T08:10:29.871Z,99.99
2018-03-16T08:11:10.337Z,99.99
2018-03-16T08:11:50.866Z,99.99
2018-03-16T08:12:31.348Z,99.99
2018-03-16T08:13:11.841Z,99.99
2018-03-16T08:13:52.348Z,99.95
2018-03-16T08:14:32.864Z,97.66
2018-03-16T08:15:13.454Z,97.66
2018-03-16T08:15:53.903Z,97.8
2018-03-16T08:16:34.430Z,97.18
2018-03-16T08:17:14.956Z,96.42
2018-03-16T08:17:55.459Z,95.75
2018-03-16T08:18:35.975Z,95.17
2018-03-16T08:19:16.476Z,96.03
2018-03-16T08:19:56.994Z,95.46
2018-03-16T08:20:37.493Z,94.22
2018-03-16T08:21:18.028Z,94.89
2018-03-16T08:21:58.532Z,95.08
2018-03-16T08:22:39.052Z,93.93
2018-03-16T08:23:19.557Z,93.07
2018-03-16T08:24:00.062Z,93.65
2018-03-16T08:24:40.578Z,93.36
2018-03-16T08:25:21.084Z,92.6
2018-03-16T08:26:01.582Z,92.97
2018-03-16T08:26:42.090Z,92.21
2018-03-16T08:27:22.623Z,93.07
2018-03-16T08:28:03.128Z,93.12
2018-03-16T08:28:43.578Z,92.36
2018-03-16T08:29:24.084Z,91.3
2018-03-16T08:30:04.603Z,92.55
2018-03-16T08:30:45.111Z,92.83
2018-03-16T08:31:25.625Z,92.45
2018-03-16T08:32:06.133Z,92.55
2018-03-16T08:32:46.628Z,91.16
2018-03-16T08:33:27.100Z,93.02
2018-03-16T08:34:07.585Z,93.5
2018-03-16T08:34:48.121Z,92.55
2018-03-16T08:35:28.635Z,94.27
2018-03-16T08:36:09.161Z,92.55
2018-03-16T08:36:49.683Z,99.99
2018-03-16T08:37:30.217Z,99.99
2018-03-16T08:38:10.740Z,99.99
2018-03-16T08:38:51.262Z,99.99
2018-03-16T08:39:31.759Z,99.99
2018-03-16T08:40:12.274Z,99.99
2018-03-16T08:40:53.491Z,96.84
2018-03-16T08:41:33.290Z,97.32
2018-03-16T08:42:13.815Z,99.99
2018-03-16T08:42:54.316Z,99.99
2018-03-16T08:43:34.821Z,99.99
2018-03-16T08:44:15.360Z,99.99
2018-03-16T08:44:55.847Z,99.99
2018-03-16T08:45:36.366Z,99.99
2018-03-16T08:46:16.885Z,99.99
2018-03-16T08:46:57.388Z,99.99
2018-03-16T08:47:37.905Z,99.99
2018-03-16T08:48:18.447Z,97.37
2018-03-16T08:48:58.950Z,94.02
2018-03-16T08:49:39.490Z,92.97
2018-03-16T08:50:19.996Z,92.88